sensor_id;sensor_type;location;lat;lon;timestamp;pressure;altitude;pressure_sealevel;temperature;humidity
9474;BME280;8865;47.636;7.692;2023-07-13T00:01:13;98330.03;;;19.63;100.00
9474;BME280;8865;47.636;7.692;2023-07-13T00:03:39;98316.56;;;19.65;100.00
9474;BME280;8865;47.636;7.692;2023-07-13T00:06:07;98323.97;;;19.70;100.00
9474;BME280;8865;47.636;7.692;2023-07-13T00:08:34;98330.56;;;19.74;100.00
9474;BME280;8865;47.636;7.692;2023-07-13T00:11:01;98322.41;;;19.75;100.00
9474;BME280;8865;47.636;7.692;2023-07-13T00:13:29;98320.19;;;19.79;100.00
9474;BME280;8865;47.636;7.692;2023-07-13T00:15:57;98307.53;;;19.81;100.00
9474;BME280;8865;47.636;7.692;2023-07-13T00:18:23;98317.78;;;19.84;100.00
9474;BME280;8865;47.636;7.692;2023-07-13T00:20:49;98318.44;;;19.86;100.00
9474;BME280;8865;47.636;7.692;2023-07-13T00:23:16;98326.03;;;19.89;100.00
9474;BME280;8865;47.636;7.692;2023-07-13T00:25:43;98327.66;;;19.90;100.00
9474;BME280;8865;47.636;7.692;2023-07-13T00:28:08;98329.31;;;19.91;100.00
9474;BME280;8865;47.636;7.692;2023-07-13T00:30:34;98324.63;;;19.93;100.00
9474;BME280;8865;47.636;7.692;2023-07-13T00:33:00;98325.66;;;19.92;100.00
9474;BME280;8865;47.636;7.692;2023-07-13T00:35:30;98321.97;;;19.93;100.00
9474;BME280;8865;47.636;7.692;2023-07-13T00:37:56;98329.75;;;19.95;100.00
9474;BME280;8865;47.636;7.692;2023-07-13T00:40:22;98322.81;;;19.94;100.00
9474;BME280;8865;47.636;7.692;2023-07-13T00:42:48;98323.19;;;19.91;100.00
9474;BME280;8865;47.636;7.692;2023-07-13T00:47:40;98317.41;;;19.87;100.00
9474;BME280;8865;47.636;7.692;2023-07-13T00:50:10;98312.94;;;19.88;100.00
9474;BME280;8865;47.636;7.692;2023-07-13T00:52:40;98313.50;;;19.83;100.00
9474;BME280;8865;47.636;7.692;2023-07-13T00:55:09;98319.06;;;19.88;100.00
9474;BME280;8865;47.636;7.692;2023-07-13T00:57:36;98328.41;;;19.84;100.00
9474;BME280;8865;47.636;7.692;2023-07-13T01:00:04;98325.13;;;19.82;100.00
9474;BME280;8865;47.636;7.692;2023-07-13T01:02:33;98322.47;;;19.82;100.00
9474;BME280;8865;47.636;7.692;2023-07-13T01:04:59;98320.19;;;19.79;100.00
9474;BME280;8865;47.636;7.692;2023-07-13T01:07:27;98310.72;;;19.76;100.00
9474;BME280;8865;47.636;7.692;2023-07-13T01:09:53;98307.25;;;19.76;100.00
9474;BME280;8865;47.636;7.692;2023-07-13T01:12:19;98320.75;;;19.74;100.00
9474;BME280;8865;47.636;7.692;2023-07-13T01:14:45;98311.09;;;19.73;100.00
9474;BME280;8865;47.636;7.692;2023-07-13T01:17:11;98306.63;;;19.74;100.00
9474;BME280;8865;47.636;7.692;2023-07-13T01:19:42;98315.63;;;19.73;100.00
9474;BME280;8865;47.636;7.692;2023-07-13T01:22:11;98316.00;;;19.70;100.00
9474;BME280;8865;47.636;7.692;2023-07-13T01:24:39;98312.34;;;19.71;100.00
9474;BME280;8865;47.636;7.692;2023-07-13T01:27:07;98306.38;;;19.69;100.00
9474;BME280;8865;47.636;7.692;2023-07-13T01:29:35;98310.25;;;19.66;100.00
9474;BME280;8865;47.636;7.692;2023-07-13T01:32:09;98315.94;;;19.63;100.00
9474;BME280;8865;47.636;7.692;2023-07-13T01:34:36;98305.31;;;19.63;100.00
9474;BME280;8865;47.636;7.692;2023-07-13T01:37:04;98309.59;;;19.64;100.00
9474;BME280;8865;47.636;7.692;2023-07-13T01:39:31;98315.94;;;19.63;100.00
9474;BME280;8865;47.636;7.692;2023-07-13T01:41:57;98316.94;;;19.62;100.00
9474;BME280;8865;47.636;7.692;2023-07-13T01:44:23;98311.81;;;19.60;100.00
9474;BME280;8865;47.636;7.692;2023-07-13T01:46:49;98314.66;;;19.59;100.00
9474;BME280;8865;47.636;7.692;2023-07-13T01:49:15;98309.53;;;19.57;100.00
9474;BME280;8865;47.636;7.692;2023-07-13T01:51:42;98310.53;;;19.56;100.00
9474;BME280;8865;47.636;7.692;2023-07-13T01:54:07;98312.81;;;19.59;100.00
9474;BME280;8865;47.636;7.692;2023-07-13T01:56:33;98309.34;;;19.59;100.00
9474;BME280;8865;47.636;7.692;2023-07-13T01:58:59;98300.75;;;19.57;100.00
9474;BME280;8865;47.636;7.692;2023-07-13T02:01:25;98307.88;;;19.56;100.00
9474;BME280;8865;47.636;7.692;2023-07-13T02:03:51;98301.13;;;19.54;100.00
9474;BME280;8865;47.636;7.692;2023-07-13T02:06:17;98306.63;;;19.52;100.00
9474;BME280;8865;47.636;7.692;2023-07-13T02:08:43;98300.47;;;19.52;100.00
9474;BME280;8865;47.636;7.692;2023-07-13T02:11:09;98300.84;;;19.49;100.00
9474;BME280;8865;47.636;7.692;2023-07-13T02:13:35;98305.34;;;19.48;100.00
9474;BME280;8865;47.636;7.692;2023-07-13T02:16:01;98307.19;;;19.48;100.00
9474;BME280;8865;47.636;7.692;2023-07-13T02:18:28;98315.34;;;19.46;100.00
9474;BME280;8865;47.636;7.692;2023-07-13T02:20:53;98313.88;;;19.43;100.00
9474;BME280;8865;47.636;7.692;2023-07-13T02:23:19;98314.06;;;19.42;100.00
9474;BME280;8865;47.636;7.692;2023-07-13T02:25:45;98322.22;;;19.40;100.00
9474;BME280;8865;47.636;7.692;2023-07-13T02:28:12;98330.38;;;19.39;100.00
9474;BME280;8865;47.636;7.692;2023-07-13T02:30:38;98325.44;;;19.36;100.00
9474;BME280;8865;47.636;7.692;2023-07-13T02:33:04;98325.81;;;19.33;100.00
9474;BME280;8865;47.636;7.692;2023-07-13T02:35:33;98335.63;;;19.32;100.00
9474;BME280;8865;47.636;7.692;2023-07-13T02:37:59;98330.50;;;19.31;100.00
9474;BME280;8865;47.636;7.692;2023-07-13T02:40:25;98326.63;;;19.33;100.00
9474;BME280;8865;47.636;7.692;2023-07-13T02:42:51;98330.75;;;19.36;100.00
9474;BME280;8865;47.636;7.692;2023-07-13T02:45:17;98327.72;;;19.39;100.00
9474;BME280;8865;47.636;7.692;2023-07-13T02:47:43;98318.75;;;19.40;100.00
9474;BME280;8865;47.636;7.692;2023-07-13T02:50:09;98328.16;;;19.42;100.00
9474;BME280;8865;47.636;7.692;2023-07-13T02:52:35;98337.97;;;19.42;100.00
9474;BME280;8865;47.636;7.692;2023-07-13T02:55:02;98332.47;;;19.43;100.00
9474;BME280;8865;47.636;7.692;2023-07-13T02:57:28;98325.31;;;19.44;100.00
9474;BME280;8865;47.636;7.692;2023-07-13T02:59:54;98325.97;;;19.46;100.00
9474;BME280;8865;47.636;7.692;2023-07-13T03:02:20;98327.59;;;19.47;100.00
9474;BME280;8865;47.636;7.692;2023-07-13T03:04:49;98327.22;;;19.50;100.00
9474;BME280;8865;47.636;7.692;2023-07-13T03:07:15;98325.22;;;19.52;100.00
9474;BME280;8865;47.636;7.692;2023-07-13T03:09:41;98327.69;;;19.54;100.00
9474;BME280;8865;47.636;7.692;2023-07-13T03:12:08;98324.84;;;19.55;100.00
9474;BME280;8865;47.636;7.692;2023-07-13T03:14:34;98329.31;;;19.55;100.00
9474;BME280;8865;47.636;7.692;2023-07-13T03:16:59;98334.81;;;19.53;100.00
9474;BME280;8865;47.636;7.692;2023-07-13T03:19:25;98332.81;;;19.55;100.00
9474;BME280;8865;47.636;7.692;2023-07-13T03:21:51;98331.78;;;19.56;100.00
9474;BME280;8865;47.636;7.692;2023-07-13T03:24:17;98329.50;;;19.53;100.00
9474;BME280;8865;47.636;7.692;2023-07-13T03:26:43;98327.03;;;19.52;100.00
9474;BME280;8865;47.636;7.692;2023-07-13T03:29:09;98327.22;;;19.50;100.00
9474;BME280;8865;47.636;7.692;2023-07-13T03:31:37;98338.50;;;19.52;100.00
9474;BME280;8865;47.636;7.692;2023-07-13T03:34:04;98334.19;;;19.51;100.00
9474;BME280;8865;47.636;7.692;2023-07-13T03:36:31;98333.56;;;19.49;100.00
9474;BME280;8865;47.636;7.692;2023-07-13T03:39:00;98340.50;;;19.50;100.00
9474;BME280;8865;47.636;7.692;2023-07-13T03:41:26;98336.41;;;19.48;100.00
9474;BME280;8865;47.636;7.692;2023-07-13T03:43:53;98335.56;;;19.47;100.00
9474;BME280;8865;47.636;7.692;2023-07-13T03:46:19;98339.06;;;19.48;100.00
9474;BME280;8865;47.636;7.692;2023-07-13T03:48:46;98330.06;;;19.49;100.00
9474;BME280;8865;47.636;7.692;2023-07-13T03:51:14;98334.56;;;19.48;100.00
9474;BME280;8865;47.636;7.692;2023-07-13T03:53:42;98338.69;;;19.51;100.00
9474;BME280;8865;47.636;7.692;2023-07-13T03:56:09;98347.66;;;19.50;100.00
9474;BME280;8865;47.636;7.692;2023-07-13T03:58:40;98349.13;;;19.52;100.00
9474;BME280;8865;47.636;7.692;2023-07-13T04:01:09;98353.59;;;19.52;100.00
9474;BME280;8865;47.636;7.692;2023-07-13T04:03:36;98353.41;;;19.53;100.00
9474;BME280;8865;47.636;7.692;2023-07-13T04:06:03;98352.41;;;19.54;100.00
9474;BME280;8865;47.636;7.692;2023-07-13T04:08:32;98354.88;;;19.56;100.00
9474;BME280;8865;47.636;7.692;2023-07-13T04:10:59;98361.00;;;19.56;100.00
9474;BME280;8865;47.636;7.692;2023-07-13T04:13:26;98361.66;;;19.58;100.00
9474;BME280;8865;47.636;7.692;2023-07-13T04:15:52;98364.94;;;19.60;100.00
9474;BME280;8865;47.636;7.692;2023-07-13T04:18:19;98374.59;;;19.61;100.00
9474;BME280;8865;47.636;7.692;2023-07-13T04:20:48;98381.72;;;19.61;100.00
9474;BME280;8865;47.636;7.692;2023-07-13T04:23:18;98373.75;;;19.61;100.00
9474;BME280;8865;47.636;7.692;2023-07-13T04:25:49;98373.53;;;19.62;100.00
9474;BME280;8865;47.636;7.692;2023-07-13T04:28:22;98373.53;;;19.62;100.00
9474;BME280;8865;47.636;7.692;2023-07-13T04:30:50;98371.53;;;19.65;100.00
9474;BME280;8865;47.636;7.692;2023-07-13T04:33:16;98364.56;;;19.63;100.00
9474;BME280;8865;47.636;7.692;2023-07-13T04:35:43;98369.50;;;19.67;100.00
9474;BME280;8865;47.636;7.692;2023-07-13T04:38:12;98371.19;;;19.68;100.00
9474;BME280;8865;47.636;7.692;2023-07-13T04:40:38;98359.31;;;19.70;100.00
9474;BME280;8865;47.636;7.692;2023-07-13T04:43:04;98358.31;;;19.71;100.00
9474;BME280;8865;47.636;7.692;2023-07-13T04:45:30;98356.28;;;19.73;100.00
9474;BME280;8865;47.636;7.692;2023-07-13T04:47:57;98357.13;;;19.74;100.00
9474;BME280;8865;47.636;7.692;2023-07-13T04:50:23;98364.38;;;19.80;100.00
9474;BME280;8865;47.636;7.692;2023-07-13T04:52:50;98367.03;;;19.80;100.00
9474;BME280;8865;47.636;7.692;2023-07-13T04:55:17;98386.06;;;19.84;100.00
9474;BME280;8865;47.636;7.692;2023-07-13T04:57:43;98387.34;;;19.88;100.00
9474;BME280;8865;47.636;7.692;2023-07-13T05:00:09;98386.97;;;19.91;100.00
9474;BME280;8865;47.636;7.692;2023-07-13T05:02:38;98390.44;;;19.91;100.00
9474;BME280;8865;47.636;7.692;2023-07-13T05:05:05;98389.50;;;19.99;100.00
9474;BME280;8865;47.636;7.692;2023-07-13T05:07:31;98384.28;;;20.06;100.00
9474;BME280;8865;47.636;7.692;2023-07-13T05:09:59;98387.78;;;20.13;100.00
9474;BME280;8865;47.636;7.692;2023-07-13T05:12:26;98389.69;;;20.19;100.00
9474;BME280;8865;47.636;7.692;2023-07-13T05:14:52;98394.44;;;20.24;100.00
9474;BME280;8865;47.636;7.692;2023-07-13T05:17:18;98389.97;;;20.24;100.00
9474;BME280;8865;47.636;7.692;2023-07-13T05:19:44;98379.69;;;20.21;100.00
9474;BME280;8865;47.636;7.692;2023-07-13T05:22:10;98386.25;;;20.25;100.00
9474;BME280;8865;47.636;7.692;2023-07-13T05:24:36;98385.03;;;20.21;100.00
9474;BME280;8865;47.636;7.692;2023-07-13T05:27:03;98392.16;;;20.21;100.00
9474;BME280;8865;47.636;7.692;2023-07-13T05:29:29;98400.59;;;20.24;100.00
9474;BME280;8865;47.636;7.692;2023-07-13T05:31:55;98409.19;;;20.26;100.00
9474;BME280;8865;47.636;7.692;2023-07-13T05:34:21;98409.78;;;20.22;100.00
9474;BME280;8865;47.636;7.692;2023-07-13T05:36:47;98411.22;;;20.24;100.00
9474;BME280;8865;47.636;7.692;2023-07-13T05:39:13;98400.13;;;20.21;100.00
9474;BME280;8865;47.636;7.692;2023-07-13T05:41:40;98411.47;;;20.29;100.00
9474;BME280;8865;47.636;7.692;2023-07-13T05:44:06;98402.56;;;20.15;100.00
9474;BME280;8865;47.636;7.692;2023-07-13T05:46:32;98399.69;;;20.17;100.00
9474;BME280;8865;47.636;7.692;2023-07-13T05:48:58;98403.19;;;20.17;100.00
9474;BME280;8865;47.636;7.692;2023-07-13T05:51:24;98415.28;;;20.20;100.00
9474;BME280;8865;47.636;7.692;2023-07-13T05:53:50;98413.63;;;20.19;100.00
9474;BME280;8865;47.636;7.692;2023-07-13T05:56:16;98410.72;;;20.14;100.00
9474;BME280;8865;47.636;7.692;2023-07-13T05:58:42;98411.91;;;20.33;100.00
9474;BME280;8865;47.636;7.692;2023-07-13T06:01:13;98410.84;;;20.49;100.00
9474;BME280;8865;47.636;7.692;2023-07-13T06:03:40;98402.84;;;20.71;100.00
9474;BME280;8865;47.636;7.692;2023-07-13T06:06:07;98401.94;;;20.92;100.00
9474;BME280;8865;47.636;7.692;2023-07-13T06:08:34;98397.66;;;20.97;100.00
9474;BME280;8865;47.636;7.692;2023-07-13T06:11:22;98402.47;;;21.09;100.00
9474;BME280;8865;47.636;7.692;2023-07-13T06:13:48;98411.47;;;21.08;100.00
9474;BME280;8865;47.636;7.692;2023-07-13T06:16:14;98412.47;;;21.07;100.00
9474;BME280;8865;47.636;7.692;2023-07-13T06:18:42;98409.97;;;20.98;100.00
9474;BME280;8865;47.636;7.692;2023-07-13T06:21:16;98423.28;;;20.98;100.00
9474;BME280;8865;47.636;7.692;2023-07-13T06:23:43;98418.66;;;21.07;100.00
9474;BME280;8865;47.636;7.692;2023-07-13T06:26:09;98419.41;;;21.01;100.00
9474;BME280;8865;47.636;7.692;2023-07-13T06:28:36;98427.06;;;21.17;100.00
9474;BME280;8865;47.636;7.692;2023-07-13T06:31:06;98418.75;;;21.27;100.00
9474;BME280;8865;47.636;7.692;2023-07-13T06:33:32;98413.25;;;21.35;100.00
9474;BME280;8865;47.636;7.692;2023-07-13T06:35:58;98415.53;;;21.45;100.00
9474;BME280;8865;47.636;7.692;2023-07-13T06:38:24;98415.94;;;21.42;100.00
9474;BME280;8865;47.636;7.692;2023-07-13T06:40:51;98416.44;;;21.59;100.00
9474;BME280;8865;47.636;7.692;2023-07-13T06:43:17;98429.81;;;21.66;100.00
9474;BME280;8865;47.636;7.692;2023-07-13T06:45:45;98435.56;;;21.69;100.00
9474;BME280;8865;47.636;7.692;2023-07-13T06:48:17;98424.28;;;21.67;100.00
9474;BME280;8865;47.636;7.692;2023-07-13T06:50:43;98436.94;;;21.52;100.00
9474;BME280;8865;47.636;7.692;2023-07-13T06:53:10;98427.91;;;21.53;100.00
9474;BME280;8865;47.636;7.692;2023-07-13T06:55:37;98435.53;;;21.63;100.00
9474;BME280;8865;47.636;7.692;2023-07-13T06:58:03;98434.75;;;21.75;100.00
9474;BME280;8865;47.636;7.692;2023-07-13T07:00:29;98437.81;;;21.72;100.00
9474;BME280;8865;47.636;7.692;2023-07-13T07:02:56;98439.00;;;21.56;100.00
9474;BME280;8865;47.636;7.692;2023-07-13T07:05:22;98441.53;;;21.78;100.00
9474;BME280;8865;47.636;7.692;2023-07-13T07:07:49;98453.28;;;21.97;100.00
9474;BME280;8865;47.636;7.692;2023-07-13T07:10:15;98446.38;;;22.16;100.00
9474;BME280;8865;47.636;7.692;2023-07-13T07:12:41;98444.91;;;22.14;100.00
9474;BME280;8865;47.636;7.692;2023-07-13T07:15:07;98436.69;;;22.08;100.00
9474;BME280;8865;47.636;7.692;2023-07-13T07:17:34;98440.41;;;22.21;100.00
9474;BME280;8865;47.636;7.692;2023-07-13T07:20:00;98439.97;;;22.10;100.00
9474;BME280;8865;47.636;7.692;2023-07-13T07:22:26;98434.47;;;22.25;100.00
9474;BME280;8865;47.636;7.692;2023-07-13T07:24:53;98426.94;;;22.42;100.00
9474;BME280;8865;47.636;7.692;2023-07-13T07:27:20;98440.03;;;22.57;100.00
9474;BME280;8865;47.636;7.692;2023-07-13T07:29:46;98437.16;;;22.59;100.00
9474;BME280;8865;47.636;7.692;2023-07-13T07:32:12;98439.63;;;22.40;100.00
9474;BME280;8865;47.636;7.692;2023-07-13T07:34:38;98433.50;;;22.33;100.00
9474;BME280;8865;47.636;7.692;2023-07-13T07:37:04;98428.16;;;22.53;100.00
9474;BME280;8865;47.636;7.692;2023-07-13T07:39:30;98436.34;;;22.65;100.00
9474;BME280;8865;47.636;7.692;2023-07-13T07:41:57;98434.09;;;22.75;100.00
9474;BME280;8865;47.636;7.692;2023-07-13T07:44:23;98428.94;;;22.80;100.00
9474;BME280;8865;47.636;7.692;2023-07-13T07:46:49;98445.78;;;22.94;100.00
9474;BME280;8865;47.636;7.692;2023-07-13T07:49:15;98431.59;;;23.00;100.00
9474;BME280;8865;47.636;7.692;2023-07-13T07:51:41;98437.97;;;23.06;100.00
9474;BME280;8865;47.636;7.692;2023-07-13T07:54:07;98437.97;;;22.99;100.00
9474;BME280;8865;47.636;7.692;2023-07-13T07:56:33;98445.38;;;23.11;100.00
9474;BME280;8865;47.636;7.692;2023-07-13T07:58:59;98448.84;;;23.25;100.00
9474;BME280;8865;47.636;7.692;2023-07-13T08:01:25;98448.63;;;23.33;100.00
9474;BME280;8865;47.636;7.692;2023-07-13T08:03:51;98448.56;;;23.46;100.00
9474;BME280;8865;47.636;7.692;2023-07-13T08:06:17;98453.66;;;23.61;100.00
9474;BME280;8865;47.636;7.692;2023-07-13T08:08:45;98449.50;;;23.72;100.00
9474;BME280;8865;47.636;7.692;2023-07-13T08:11:11;98450.50;;;23.78;100.00
9474;BME280;8865;47.636;7.692;2023-07-13T08:13:37;98456.66;;;23.85;100.00
9474;BME280;8865;47.636;7.692;2023-07-13T08:16:06;98449.66;;;23.84;100.00
9474;BME280;8865;47.636;7.692;2023-07-13T08:18:32;98452.75;;;23.87;100.00
9474;BME280;8865;47.636;7.692;2023-07-13T08:21:03;98449.28;;;23.87;100.00
9474;BME280;8865;47.636;7.692;2023-07-13T08:23:29;98451.84;;;24.00;100.00
9474;BME280;8865;47.636;7.692;2023-07-13T08:25:55;98454.69;;;23.67;100.00
9474;BME280;8865;47.636;7.692;2023-07-13T08:28:22;98450.63;;;23.44;98.83
9474;BME280;8865;47.636;7.692;2023-07-13T08:30:49;98444.31;;;23.32;99.20
9474;BME280;8865;47.636;7.692;2023-07-13T08:33:19;98447.06;;;23.64;100.00
9474;BME280;8865;47.636;7.692;2023-07-13T08:35:47;98448.28;;;23.68;100.00
9474;BME280;8865;47.636;7.692;2023-07-13T08:38:14;98451.09;;;23.93;100.00
9474;BME280;8865;47.636;7.692;2023-07-13T08:40:41;98437.28;;;23.89;85.71
9474;BME280;8865;47.636;7.692;2023-07-13T08:43:15;98445.09;;;23.98;83.43
9474;BME280;8865;47.636;7.692;2023-07-13T08:45:45;98444.53;;;24.21;85.60
9474;BME280;8865;47.636;7.692;2023-07-13T08:48:30;98446.56;;;24.51;93.12
9474;BME280;8865;47.636;7.692;2023-07-13T08:53:48;98439.75;;;25.05;88.57
9474;BME280;8865;47.636;7.692;2023-07-13T08:56:19;98439.50;;;24.88;83.21
9474;BME280;8865;47.636;7.692;2023-07-13T08:58:51;98437.91;;;25.24;95.74
9474;BME280;8865;47.636;7.692;2023-07-13T09:01:28;98437.78;;;25.38;78.71
9474;BME280;8865;47.636;7.692;2023-07-13T09:04:18;98439.47;;;25.51;83.05
9474;BME280;8865;47.636;7.692;2023-07-13T09:14:44;98442.16;;;25.32;89.71
9474;BME280;8865;47.636;7.692;2023-07-13T09:17:29;98435.00;;;25.63;91.25
9474;BME280;8865;47.636;7.692;2023-07-13T09:20:00;98440.44;;;25.75;77.60
9474;BME280;8865;47.636;7.692;2023-07-13T09:22:32;98442.63;;;25.47;72.78
9474;BME280;8865;47.636;7.692;2023-07-13T09:25:06;98440.84;;;25.90;84.01
9474;BME280;8865;47.636;7.692;2023-07-13T09:27:39;98443.13;;;26.35;84.25
9474;BME280;8865;47.636;7.692;2023-07-13T09:32:54;98442.59;;;27.04;79.10
9474;BME280;8865;47.636;7.692;2023-07-13T09:35:23;98438.75;;;27.24;69.76
9474;BME280;8865;47.636;7.692;2023-07-13T09:37:50;98441.97;;;27.61;72.88
9474;BME280;8865;47.636;7.692;2023-07-13T09:43:15;98449.72;;;27.99;58.68
9474;BME280;8865;47.636;7.692;2023-07-13T09:45:45;98444.91;;;28.18;59.68
9474;BME280;8865;47.636;7.692;2023-07-13T09:48:13;98444.19;;;28.22;54.22
9474;BME280;8865;47.636;7.692;2023-07-13T09:50:41;98450.25;;;28.29;54.27
9474;BME280;8865;47.636;7.692;2023-07-13T09:53:18;98445.66;;;28.30;49.42
9474;BME280;8865;47.636;7.692;2023-07-13T09:55:46;98443.28;;;28.33;49.23
9474;BME280;8865;47.636;7.692;2023-07-13T10:01:00;98441.28;;;28.58;54.44
9474;BME280;8865;47.636;7.692;2023-07-13T10:03:33;98440.41;;;28.69;52.29
9474;BME280;8865;47.636;7.692;2023-07-13T10:06:15;98440.72;;;29.29;57.19
9474;BME280;8865;47.636;7.692;2023-07-13T10:08:41;98444.13;;;29.63;55.31
9474;BME280;8865;47.636;7.692;2023-07-13T10:11:12;98434.72;;;29.66;51.88
9474;BME280;8865;47.636;7.692;2023-07-13T10:13:43;98439.25;;;29.60;51.29
9474;BME280;8865;47.636;7.692;2023-07-13T10:16:10;98449.47;;;29.58;49.70
9474;BME280;8865;47.636;7.692;2023-07-13T10:18:44;98449.00;;;30.10;49.73
9474;BME280;8865;47.636;7.692;2023-07-13T10:21:14;98445.81;;;30.78;46.82
9474;BME280;8865;47.636;7.692;2023-07-13T10:23:41;98441.13;;;31.06;47.90
9474;BME280;8865;47.636;7.692;2023-07-13T10:29:02;98450.16;;;30.85;46.45
9474;BME280;8865;47.636;7.692;2023-07-13T10:31:30;98446.13;;;30.22;43.64
9474;BME280;8865;47.636;7.692;2023-07-13T10:33:56;98437.63;;;31.06;46.03
9474;BME280;8865;47.636;7.692;2023-07-13T10:36:45;98440.69;;;31.98;45.57
9474;BME280;8865;47.636;7.692;2023-07-13T10:39:20;98444.88;;;32.73;43.83
9474;BME280;8865;47.636;7.692;2023-07-13T10:41:52;98452.16;;;32.47;40.54
9474;BME280;8865;47.636;7.692;2023-07-13T10:44:24;98444.28;;;32.19;39.45
9474;BME280;8865;47.636;7.692;2023-07-13T10:46:58;98453.16;;;31.84;42.60
9474;BME280;8865;47.636;7.692;2023-07-13T10:49:27;98450.50;;;32.97;40.39
9474;BME280;8865;47.636;7.692;2023-07-13T10:51:53;98440.66;;;33.42;36.52
9474;BME280;8865;47.636;7.692;2023-07-13T10:54:22;98445.91;;;32.98;40.71
9474;BME280;8865;47.636;7.692;2023-07-13T10:59:38;98436.88;;;33.33;39.85
9474;BME280;8865;47.636;7.692;2023-07-13T11:04:47;98434.75;;;33.09;40.41
9474;BME280;8865;47.636;7.692;2023-07-13T11:07:24;98440.03;;;33.56;39.84
9474;BME280;8865;47.636;7.692;2023-07-13T11:09:59;98444.59;;;33.76;41.48
9474;BME280;8865;47.636;7.692;2023-07-13T11:15:12;98429.50;;;33.39;38.76
9474;BME280;8865;47.636;7.692;2023-07-13T11:17:48;98441.75;;;33.36;39.92
9474;BME280;8865;47.636;7.692;2023-07-13T11:23:37;98431.00;;;32.90;39.96
9474;BME280;8865;47.636;7.692;2023-07-13T11:25:38;98422.13;;;33.55;35.08
9474;BME280;8865;47.636;7.692;2023-07-13T11:30:40;98413.78;;;33.91;34.03
9474;BME280;8865;47.636;7.692;2023-07-13T11:36:00;98423.75;;;34.45;38.47
9474;BME280;8865;47.636;7.692;2023-07-13T11:38:38;98418.75;;;34.58;35.90
9474;BME280;8865;47.636;7.692;2023-07-13T11:41:20;98412.97;;;34.94;32.31
9474;BME280;8865;47.636;7.692;2023-07-13T11:43:53;98409.06;;;35.00;32.37
9474;BME280;8865;47.636;7.692;2023-07-13T11:46:24;98407.78;;;33.94;28.06
9474;BME280;8865;47.636;7.692;2023-07-13T11:48:52;98425.06;;;34.13;29.90
9474;BME280;8865;47.636;7.692;2023-07-13T11:51:25;98420.78;;;34.42;30.46
9474;BME280;8865;47.636;7.692;2023-07-13T11:53:53;98415.97;;;33.89;28.24
9474;BME280;8865;47.636;7.692;2023-07-13T11:56:20;98419.41;;;33.55;31.27
9474;BME280;8865;47.636;7.692;2023-07-13T11:58:54;98410.84;;;33.22;29.82
9474;BME280;8865;47.636;7.692;2023-07-13T12:01:25;98420.16;;;33.60;32.11
9474;BME280;8865;47.636;7.692;2023-07-13T12:03:52;98423.00;;;33.95;30.87
9474;BME280;8865;47.636;7.692;2023-07-13T12:09:02;98416.09;;;34.82;28.58
9474;BME280;8865;47.636;7.692;2023-07-13T12:11:30;98419.16;;;34.99;30.23
9474;BME280;8865;47.636;7.692;2023-07-13T12:14:00;98422.13;;;34.79;27.98
9474;BME280;8865;47.636;7.692;2023-07-13T12:16:29;98408.38;;;34.60;28.79
9474;BME280;8865;47.636;7.692;2023-07-13T12:18:57;98414.06;;;34.93;29.46
9474;BME280;8865;47.636;7.692;2023-07-13T12:21:31;98416.00;;;35.40;31.80
9474;BME280;8865;47.636;7.692;2023-07-13T12:23:58;98414.16;;;35.74;31.83
9474;BME280;8865;47.636;7.692;2023-07-13T12:26:24;98413.19;;;36.08;30.24
9474;BME280;8865;47.636;7.692;2023-07-13T12:28:53;98419.69;;;35.69;27.73
9474;BME280;8865;47.636;7.692;2023-07-13T12:34:00;98429.38;;;36.37;29.13
9474;BME280;8865;47.636;7.692;2023-07-13T12:36:30;98426.00;;;35.88;25.09
9474;BME280;8865;47.636;7.692;2023-07-13T12:39:03;98415.00;;;35.93;24.20
9474;BME280;8865;47.636;7.692;2023-07-13T12:41:30;98412.75;;;36.34;26.92
9474;BME280;8865;47.636;7.692;2023-07-13T12:43:59;98422.13;;;37.21;27.54
9474;BME280;8865;47.636;7.692;2023-07-13T12:46:26;98416.03;;;38.02;26.01
9474;BME280;8865;47.636;7.692;2023-07-13T12:48:54;98407.16;;;38.65;25.00
9474;BME280;8865;47.636;7.692;2023-07-13T12:51:27;98413.22;;;38.62;26.10
9474;BME280;8865;47.636;7.692;2023-07-13T12:53:58;98411.59;;;38.92;24.05
9474;BME280;8865;47.636;7.692;2023-07-13T12:56:32;98407.38;;;39.17;23.31
9474;BME280;8865;47.636;7.692;2023-07-13T12:59:02;98413.88;;;38.90;24.71
9474;BME280;8865;47.636;7.692;2023-07-13T13:01:29;98405.66;;;38.90;23.53
9474;BME280;8865;47.636;7.692;2023-07-13T13:04:01;98395.34;;;38.10;22.01
9474;BME280;8865;47.636;7.692;2023-07-13T13:06:32;98398.06;;;38.55;22.05
9474;BME280;8865;47.636;7.692;2023-07-13T13:08:59;98402.66;;;38.69;19.75
9474;BME280;8865;47.636;7.692;2023-07-13T13:11:28;98396.13;;;38.56;21.41
9474;BME280;8865;47.636;7.692;2023-07-13T13:13:54;98397.22;;;38.23;20.58
9474;BME280;8865;47.636;7.692;2023-07-13T13:16:32;98397.78;;;37.75;21.27
9474;BME280;8865;47.636;7.692;2023-07-13T13:21:48;98403.72;;;37.13;23.69
9474;BME280;8865;47.636;7.692;2023-07-13T13:24:18;98409.19;;;36.85;22.79
9474;BME280;8865;47.636;7.692;2023-07-13T13:26:46;98414.41;;;35.97;22.22
9474;BME280;8865;47.636;7.692;2023-07-13T13:29:15;98405.22;;;35.92;23.78
9474;BME280;8865;47.636;7.692;2023-07-13T13:31:42;98405.19;;;35.54;23.79
9474;BME280;8865;47.636;7.692;2023-07-13T13:34:10;98397.56;;;35.32;23.22
9474;BME280;8865;47.636;7.692;2023-07-13T13:36:37;98414.19;;;34.82;22.57
9474;BME280;8865;47.636;7.692;2023-07-13T13:39:24;98407.88;;;35.11;25.44
9474;BME280;8865;47.636;7.692;2023-07-13T13:41:52;98401.94;;;35.52;20.34
9474;BME280;8865;47.636;7.692;2023-07-13T13:44:19;98405.16;;;35.35;20.70
9474;BME280;8865;47.636;7.692;2023-07-13T13:46:49;98412.06;;;35.28;22.23
9474;BME280;8865;47.636;7.692;2023-07-13T13:49:18;98415.69;;;35.85;21.78
9474;BME280;8865;47.636;7.692;2023-07-13T13:51:45;98417.34;;;36.19;22.91
9474;BME280;8865;47.636;7.692;2023-07-13T13:54:15;98408.69;;;36.50;21.25
9474;BME280;8865;47.636;7.692;2023-07-13T13:56:50;98407.97;;;35.92;20.10
9474;BME280;8865;47.636;7.692;2023-07-13T13:59:16;98413.59;;;35.77;22.26
9474;BME280;8865;47.636;7.692;2023-07-13T14:01:44;98410.44;;;35.70;23.85
9474;BME280;8865;47.636;7.692;2023-07-13T14:04:29;98409.47;;;35.61;24.18
9474;BME280;8865;47.636;7.692;2023-07-13T14:06:55;98419.63;;;35.55;25.69
9474;BME280;8865;47.636;7.692;2023-07-13T14:09:21;98408.44;;;35.32;23.14